createdAt,value
2023-01-15T00:02:18.882Z,5.90
2023-01-15T00:04:45.919Z,5.40
2023-01-15T00:07:12.881Z,6.43
2023-01-15T00:09:39.807Z,5.60
2023-01-15T00:12:06.856Z,6.22
2023-01-15T00:14:33.774Z,5.75
2023-01-15T00:17:00.681Z,5.78
2023-01-15T00:19:27.601Z,5.15
2023-01-15T00:21:54.564Z,5.95
2023-01-15T00:24:40.213Z,5.05
2023-01-15T00:27:27.578Z,4.80
2023-01-15T00:29:54.484Z,4.55
2023-01-15T00:32:21.605Z,3.17
2023-01-15T00:34:48.496Z,3.53
2023-01-15T00:37:15.239Z,2.80
2023-01-15T00:39:42.529Z,2.63
2023-01-15T00:42:11.256Z,2.70
2023-01-15T00:44:38.021Z,1.80
2023-01-15T00:47:04.972Z,2.08
2023-01-15T00:49:32.068Z,1.83
2023-01-15T00:51:58.747Z,2.28
2023-01-15T00:54:25.532Z,2.72
2023-01-15T00:56:55.186Z,2.28
2023-01-15T00:59:22.182Z,1.85
2023-01-15T01:01:49.247Z,1.70
2023-01-15T01:04:16.231Z,2.13
2023-01-15T01:06:43.269Z,2.03
2023-01-15T01:09:16.903Z,2.13
2023-01-15T01:11:43.889Z,1.92
2023-01-15T01:14:12.500Z,2.15
2023-01-15T01:16:42.235Z,1.95
2023-01-15T01:19:17.579Z,1.80
2023-01-15T01:21:45.800Z,1.70
2023-01-15T01:24:14.993Z,1.92
2023-01-15T01:26:44.289Z,1.80
2023-01-15T01:29:20.212Z,1.48
2023-01-15T01:31:51.473Z,1.75
2023-01-15T01:34:18.274Z,1.52
2023-01-15T01:36:45.322Z,1.65
2023-01-15T01:39:20.742Z,1.80
2023-01-15T01:41:48.103Z,1.38
2023-01-15T01:44:33.648Z,1.00
2023-01-15T01:47:07.300Z,1.40
2023-01-15T01:49:35.586Z,1.55
2023-01-15T01:52:16.240Z,1.30
2023-01-15T01:54:46.680Z,1.52
2023-01-15T01:57:16.080Z,0.90
2023-01-15T01:59:43.920Z,1.50
2023-01-15T02:02:11.136Z,1.20
2023-01-15T02:04:39.197Z,0.98
2023-01-15T02:07:07.097Z,1.02
2023-01-15T02:09:34.080Z,1.40
2023-01-15T02:12:14.440Z,0.80
2023-01-15T02:15:01.244Z,1.30
2023-01-15T02:17:36.984Z,0.80
2023-01-15T02:20:29.241Z,1.20
2023-01-15T02:23:11.404Z,0.85
2023-01-15T02:25:41.247Z,0.93
2023-01-15T02:28:15.665Z,1.15
2023-01-15T02:30:47.229Z,0.80
2023-01-15T02:33:23.358Z,0.90
2023-01-15T02:36:06.778Z,0.95
2023-01-15T02:38:39.880Z,0.80
2023-01-15T02:41:18.646Z,1.10
2023-01-15T02:43:50.310Z,0.70
2023-01-15T02:46:20.176Z,1.00
2023-01-15T02:48:52.813Z,1.10
2023-01-15T02:51:25.760Z,0.75
2023-01-15T02:53:58.017Z,0.85
2023-01-15T02:56:28.607Z,1.00
2023-01-15T02:59:00.142Z,0.93
2023-01-15T03:01:36.233Z,0.82
2023-01-15T03:04:32.555Z,0.70
2023-01-15T03:07:06.779Z,1.00
2023-01-15T03:09:35.227Z,0.70
2023-01-15T03:12:28.481Z,0.82
2023-01-15T03:15:11.507Z,0.93
2023-01-15T03:17:54.791Z,0.90
2023-01-15T03:20:27.880Z,0.85
2023-01-15T03:23:00.862Z,0.80
2023-01-15T03:25:36.987Z,1.00
2023-01-15T03:28:05.768Z,0.90
2023-01-15T03:30:34.407Z,0.85
2023-01-15T03:33:01.255Z,1.00
2023-01-15T03:35:40.043Z,1.27
2023-01-15T03:38:07.078Z,1.08
2023-01-15T03:40:39.747Z,0.93
2023-01-15T03:43:31.643Z,1.02
2023-01-15T03:46:03.539Z,1.23
2023-01-15T03:48:47.214Z,1.10
2023-01-15T03:51:54.247Z,1.05
2023-01-15T03:54:39.215Z,1.15
2023-01-15T03:57:23.665Z,1.23
2023-01-15T03:59:54.878Z,1.52
2023-01-15T04:02:23.923Z,1.60
2023-01-15T04:04:53.734Z,1.55
2023-01-15T04:07:21.876Z,1.23
2023-01-15T04:09:48.995Z,1.25
2023-01-15T04:12:17.563Z,1.27
2023-01-15T04:14:44.902Z,1.33
2023-01-15T04:17:11.838Z,1.92
2023-01-15T04:19:38.798Z,1.10
2023-01-15T04:22:05.838Z,1.10
2023-01-15T04:24:33.035Z,1.10
2023-01-15T04:26:59.931Z,1.50
2023-01-15T04:29:26.907Z,1.15
2023-01-15T04:31:58.050Z,1.25
2023-01-15T04:34:27.054Z,1.10
2023-01-15T04:36:54.734Z,1.45
2023-01-15T04:39:21.932Z,1.23
2023-01-15T04:42:07.514Z,1.20
2023-01-15T04:44:36.013Z,1.25
2023-01-15T04:47:02.948Z,1.15
2023-01-15T04:49:29.753Z,0.85
2023-01-15T04:51:57.079Z,1.15
2023-01-15T04:54:24.205Z,1.30
2023-01-15T04:56:53.834Z,1.15
2023-01-15T04:59:23.125Z,1.15
2023-01-15T05:02:02.444Z,0.90
2023-01-15T05:04:30.875Z,0.82
2023-01-15T05:06:58.259Z,1.08
2023-01-15T05:09:25.216Z,0.80
2023-01-15T05:11:52.098Z,0.93
2023-01-15T05:14:18.963Z,0.85
2023-01-15T05:16:46.017Z,0.80
2023-01-15T05:19:13.152Z,1.08
2023-01-15T05:21:42.789Z,0.90
2023-01-15T05:24:14.076Z,0.90
2023-01-15T05:26:41.219Z,0.93
2023-01-15T05:29:08.233Z,0.75
2023-01-15T05:31:35.160Z,0.77
2023-01-15T05:34:02.443Z,0.80
2023-01-15T05:36:32.319Z,0.63
2023-01-15T05:39:02.411Z,0.68
2023-01-15T05:41:48.930Z,1.00
2023-01-15T05:44:22.370Z,0.75
2023-01-15T05:46:51.224Z,0.65
2023-01-15T05:49:21.072Z,0.63
2023-01-15T05:51:48.942Z,1.00
2023-01-15T05:54:19.264Z,0.70
2023-01-15T05:56:46.565Z,0.68
2023-01-15T05:59:14.468Z,1.15
2023-01-15T06:01:42.021Z,0.63
2023-01-15T06:04:10.403Z,0.52
2023-01-15T06:06:37.445Z,0.77
2023-01-15T06:09:05.123Z,0.93
2023-01-15T06:11:32.443Z,1.00
2023-01-15T06:13:59.646Z,0.95
2023-01-15T06:16:26.972Z,0.85
2023-01-15T06:18:54.005Z,0.80
2023-01-15T06:21:20.995Z,1.17
2023-01-15T06:23:48.051Z,1.10
2023-01-15T06:26:17.843Z,1.00
2023-01-15T06:28:45.962Z,1.20
2023-01-15T06:31:15.487Z,1.02
2023-01-15T06:33:42.504Z,1.30
2023-01-15T06:36:14.915Z,1.95
2023-01-15T06:38:43.019Z,1.42
2023-01-15T06:41:32.505Z,1.05
2023-01-15T06:44:18.281Z,1.70
2023-01-15T06:47:06.309Z,1.52
2023-01-15T06:49:34.982Z,1.52
2023-01-15T06:52:02.239Z,1.30
2023-01-15T06:54:29.674Z,1.48
2023-01-15T06:56:56.409Z,1.83
2023-01-15T06:59:23.189Z,1.27
2023-01-15T07:01:50.185Z,1.33
2023-01-15T07:04:17.204Z,1.60
2023-01-15T07:06:44.214Z,1.67
2023-01-15T07:09:12.109Z,1.10
2023-01-15T07:11:49.875Z,1.70
2023-01-15T07:14:22.017Z,1.38
2023-01-15T07:16:49.590Z,1.70
2023-01-15T07:19:17.611Z,3.83
2023-01-15T07:21:44.961Z,1.70
2023-01-15T07:24:13.047Z,1.60
2023-01-15T07:26:40.094Z,1.50
2023-01-15T07:29:07.132Z,1.40
2023-01-15T07:31:34.174Z,1.45
2023-01-15T07:34:01.157Z,2.05
2023-01-15T07:36:27.970Z,1.50
2023-01-15T07:38:55.214Z,1.60
2023-01-15T07:41:40.685Z,1.40
2023-01-15T07:47:14.019Z,1.55
2023-01-15T07:49:46.077Z,1.63
2023-01-15T07:52:18.709Z,1.52
2023-01-15T07:54:50.377Z,1.65
2023-01-15T07:57:20.672Z,1.45
2023-01-15T07:59:48.577Z,1.92
2023-01-15T08:02:15.550Z,1.50
2023-01-15T08:04:42.613Z,1.50
2023-01-15T08:07:10.228Z,1.65
2023-01-15T08:09:37.509Z,1.70
2023-01-15T08:12:26.008Z,2.05
2023-01-15T08:15:11.243Z,1.77
2023-01-15T08:17:39.107Z,1.70
2023-01-15T08:20:10.280Z,1.50
2023-01-15T08:22:38.795Z,1.45
2023-01-15T08:25:08.111Z,1.80
2023-01-15T08:27:35.490Z,2.10
2023-01-15T08:30:03.159Z,2.47
2023-01-15T08:32:30.018Z,1.45
2023-01-15T08:34:56.971Z,1.92
2023-01-15T08:37:25.446Z,1.42
2023-01-15T08:39:53.452Z,2.03
2023-01-15T08:42:21.594Z,1.70
2023-01-15T08:44:49.044Z,2.03
2023-01-15T08:47:17.561Z,1.63
2023-01-15T08:49:46.203Z,2.30
2023-01-15T08:52:13.358Z,1.45
2023-01-15T08:54:42.095Z,1.63
2023-01-15T08:57:10.012Z,1.80
2023-01-15T08:59:37.155Z,1.50
2023-01-15T09:02:04.334Z,2.65
2023-01-15T09:04:31.556Z,1.75
2023-01-15T09:06:58.707Z,1.65
2023-01-15T09:09:25.783Z,1.58
2023-01-15T09:11:52.828Z,2.00
2023-01-15T09:14:56.284Z,1.92
2023-01-15T09:17:06.842Z,1.60
2023-01-15T09:19:33.761Z,1.42
2023-01-15T09:22:00.911Z,1.95
2023-01-15T09:24:27.856Z,1.33
2023-01-15T09:26:54.913Z,1.52
2023-01-15T09:29:21.981Z,1.98
2023-01-15T09:31:48.900Z,2.03
2023-01-15T09:34:15.947Z,1.77
2023-01-15T09:36:42.925Z,1.80
2023-01-15T09:39:12.433Z,1.75
2023-01-15T09:42:08.679Z,1.58
2023-01-15T09:44:57.177Z,1.60
2023-01-15T09:47:30.058Z,1.83
2023-01-15T09:50:24.691Z,1.70
2023-01-15T09:52:54.537Z,2.92
2023-01-15T09:55:27.209Z,1.88
2023-01-15T09:57:58.599Z,1.67
2023-01-15T10:00:29.380Z,2.10
2023-01-15T10:03:14.329Z,1.83
2023-01-15T10:05:46.869Z,1.95
2023-01-15T10:08:28.083Z,1.50
2023-01-15T10:11:00.980Z,1.55
2023-01-15T10:13:31.929Z,2.58
2023-01-15T10:15:59.211Z,2.38
2023-01-15T10:18:28.425Z,2.72
2023-01-15T10:21:18.037Z,2.05
2023-01-15T10:23:50.615Z,2.10
2023-01-15T10:26:23.971Z,1.92
2023-01-15T10:29:00.037Z,2.00
2023-01-15T10:31:53.108Z,2.08
2023-01-15T10:34:20.049Z,2.42
2023-01-15T10:36:54.006Z,2.38
2023-01-15T10:39:28.303Z,1.92
2023-01-15T10:42:10.211Z,2.42
2023-01-15T10:44:42.842Z,2.00
2023-01-15T10:47:18.336Z,1.95
2023-01-15T10:49:46.762Z,2.20
2023-01-15T10:52:33.059Z,1.98
2023-01-15T10:55:26.231Z,2.75
2023-01-15T10:58:09.129Z,1.92
2023-01-15T11:00:38.982Z,2.13
2023-01-15T11:03:21.150Z,1.80
2023-01-15T11:05:48.052Z,2.45
2023-01-15T11:11:43.887Z,2.05
2023-01-15T11:14:29.268Z,1.80
2023-01-15T11:19:39.947Z,1.85
2023-01-15T11:22:16.017Z,2.35
2023-01-15T11:24:47.996Z,2.30
2023-01-15T11:27:27.000Z,2.30
2023-01-15T11:29:58.069Z,4.18
2023-01-15T11:32:30.390Z,1.95
2023-01-15T11:35:18.770Z,2.15
2023-01-15T11:37:45.785Z,2.15
2023-01-15T11:40:21.395Z,2.28
2023-01-15T11:43:07.702Z,2.20
2023-01-15T11:45:53.476Z,2.72
2023-01-15T11:48:41.578Z,2.00
2023-01-15T11:51:16.158Z,2.65
2023-01-15T11:53:50.526Z,2.88
2023-01-15T11:56:28.939Z,1.77
2023-01-15T11:59:02.633Z,2.47
2023-01-15T12:01:35.024Z,2.20
2023-01-15T12:04:06.243Z,2.42
2023-01-15T12:06:40.148Z,2.42
2023-01-15T12:09:36.547Z,2.85
2023-01-15T12:12:22.453Z,2.40
2023-01-15T12:15:08.584Z,2.78
2023-01-15T12:17:53.972Z,2.30
2023-01-15T12:23:37.962Z,2.72
2023-01-15T12:26:17.598Z,2.80
2023-01-15T12:29:30.850Z,2.35
2023-01-15T12:32:08.481Z,2.10
2023-01-15T12:34:41.838Z,2.30
2023-01-15T12:37:36.885Z,2.63
2023-01-15T12:40:28.278Z,2.50
2023-01-15T12:43:15.307Z,3.13
2023-01-15T12:45:47.618Z,2.83
2023-01-15T12:48:24.313Z,2.97
2023-01-15T12:50:54.774Z,2.15
2023-01-15T12:53:43.667Z,2.90
2023-01-15T12:56:10.470Z,2.60
2023-01-15T12:59:00.354Z,2.63
2023-01-15T13:01:48.629Z,2.33
2023-01-15T13:04:34.860Z,2.33
2023-01-15T13:07:11.857Z,2.90
2023-01-15T13:09:43.547Z,2.58
2023-01-15T13:12:15.206Z,2.03
2023-01-15T13:14:46.222Z,2.40
2023-01-15T13:17:22.317Z,3.55
2023-01-15T13:19:55.148Z,2.72
2023-01-15T13:22:28.936Z,1.85
2023-01-15T13:25:29.534Z,2.40
2023-01-15T13:28:02.341Z,2.30
2023-01-15T13:31:16.619Z,2.58
2023-01-15T13:33:49.128Z,3.13
2023-01-15T13:36:40.746Z,2.35
2023-01-15T13:39:16.279Z,2.28
2023-01-15T13:42:01.781Z,2.55
2023-01-15T13:44:36.832Z,2.50
2023-01-15T13:47:06.113Z,3.13
2023-01-15T13:49:39.512Z,2.63
2023-01-15T13:52:18.900Z,2.95
2023-01-15T13:54:46.072Z,2.35
2023-01-15T13:57:35.920Z,2.63
2023-01-15T14:00:06.017Z,2.22
2023-01-15T14:02:37.447Z,3.60
2023-01-15T14:05:23.261Z,2.60
2023-01-15T14:07:50.369Z,2.35
2023-01-15T14:10:17.278Z,2.55
2023-01-15T14:13:07.742Z,2.40
2023-01-15T14:15:50.464Z,2.38
2023-01-15T14:18:38.536Z,4.45
2023-01-15T14:21:41.188Z,2.40
2023-01-15T14:24:18.352Z,2.40
2023-01-15T14:27:04.823Z,2.08
2023-01-15T14:29:59.204Z,3.08
2023-01-15T14:32:44.835Z,2.70
2023-01-15T14:35:19.801Z,2.40
2023-01-15T14:37:57.810Z,2.40
2023-01-15T14:40:30.193Z,2.13
2023-01-15T14:43:09.446Z,2.25
2023-01-15T14:45:40.627Z,2.28
2023-01-15T14:48:30.231Z,2.05
2023-01-15T14:51:13.774Z,2.42
2023-01-15T14:53:45.333Z,2.92
2023-01-15T14:56:24.639Z,2.45
2023-01-15T14:59:14.681Z,2.75
2023-01-15T15:01:50.698Z,2.80
2023-01-15T15:04:36.115Z,2.25
2023-01-15T15:09:34.621Z,2.67
2023-01-15T15:12:33.880Z,3.17
2023-01-15T15:15:08.127Z,2.83
2023-01-15T15:18:01.217Z,2.95
2023-01-15T15:20:39.722Z,2.63
2023-01-15T15:23:17.493Z,2.80
2023-01-15T15:26:08.016Z,2.30
2023-01-15T15:28:35.014Z,2.05
2023-01-15T15:31:02.120Z,2.42
2023-01-15T15:33:39.548Z,2.28
2023-01-15T15:36:08.113Z,2.40
2023-01-15T15:38:35.222Z,2.33
2023-01-15T15:41:08.303Z,2.13
2023-01-15T15:44:03.008Z,2.30
2023-01-15T15:46:50.719Z,2.00
2023-01-15T15:49:20.284Z,2.08
2023-01-15T15:51:51.936Z,2.17
2023-01-15T15:54:28.528Z,1.90
2023-01-15T15:57:09.161Z,1.80
2023-01-15T15:59:54.571Z,2.40
2023-01-15T16:04:53.340Z,2.20
2023-01-15T16:07:28.248Z,2.38
2023-01-15T16:12:30.115Z,2.30
2023-01-15T16:14:59.258Z,1.90
2023-01-15T16:17:27.372Z,2.20
2023-01-15T16:19:58.574Z,2.15
2023-01-15T16:22:25.438Z,2.30
2023-01-15T16:24:59.676Z,2.33
2023-01-15T16:27:32.024Z,2.42
2023-01-15T16:30:00.034Z,2.42
2023-01-15T16:32:30.705Z,2.83
2023-01-15T16:35:07.500Z,2.22
2023-01-15T16:37:36.022Z,2.20
2023-01-15T16:40:05.880Z,2.10
2023-01-15T16:42:35.802Z,2.25
2023-01-15T16:45:26.242Z,2.40
2023-01-15T16:48:08.352Z,2.33
2023-01-15T16:50:37.243Z,2.70
2023-01-15T16:53:06.792Z,2.15
2023-01-15T16:55:47.160Z,2.47
2023-01-15T16:58:17.821Z,2.90
2023-01-15T17:00:53.647Z,2.75
2023-01-15T17:03:23.036Z,2.72
2023-01-15T17:05:53.889Z,4.57
2023-01-15T17:08:24.958Z,2.92
2023-01-15T17:11:00.568Z,2.20
2023-01-15T17:13:37.424Z,2.75
2023-01-15T17:16:16.217Z,2.20
2023-01-15T17:18:43.774Z,2.80
2023-01-15T17:21:27.422Z,2.63
2023-01-15T17:23:55.835Z,2.30
2023-01-15T17:26:25.586Z,4.18
2023-01-15T17:28:52.980Z,2.60
2023-01-15T17:31:28.597Z,2.42
2023-01-15T17:33:56.686Z,2.55
2023-01-15T17:36:24.345Z,2.17
2023-01-15T17:38:51.796Z,2.47
2023-01-15T17:41:20.188Z,2.83
2023-01-15T17:43:47.781Z,2.63
2023-01-15T17:46:14.762Z,2.13
2023-01-15T17:48:44.489Z,2.30
2023-01-15T17:51:14.293Z,2.55
2023-01-15T17:53:41.473Z,1.80
2023-01-15T17:56:27.396Z,3.13
2023-01-15T17:59:32.585Z,2.85
2023-01-15T18:02:18.274Z,2.50
2023-01-15T18:05:08.901Z,1.95
2023-01-15T18:07:41.117Z,2.72
2023-01-15T18:10:10.757Z,2.30
2023-01-15T18:12:37.726Z,2.30
2023-01-15T18:15:05.199Z,2.60
2023-01-15T18:17:32.130Z,2.15
2023-01-15T18:19:59.057Z,2.35
2023-01-15T18:22:25.934Z,2.40
2023-01-15T18:24:52.877Z,2.15
2023-01-15T18:27:19.882Z,3.17
2023-01-15T18:29:46.805Z,2.25
2023-01-15T18:32:13.754Z,2.00
2023-01-15T18:34:40.660Z,2.20
2023-01-15T18:37:08.228Z,2.58
2023-01-15T18:39:37.269Z,2.28
2023-01-15T18:42:04.659Z,2.20
2023-01-15T18:44:50.273Z,2.00
2023-01-15T18:47:17.820Z,2.08
2023-01-15T18:49:46.623Z,1.95
2023-01-15T18:52:35.304Z,1.90
2023-01-15T18:55:04.882Z,2.28
2023-01-15T18:57:33.350Z,2.17
2023-01-15T19:00:00.505Z,2.42
2023-01-15T19:02:27.553Z,1.90
2023-01-15T19:04:56.603Z,1.92
2023-01-15T19:07:23.937Z,2.35
2023-01-15T19:09:51.143Z,1.77
2023-01-15T19:12:19.990Z,2.13
2023-01-15T19:15:05.892Z,2.53
2023-01-15T19:17:52.270Z,1.80
2023-01-15T19:20:20.478Z,1.88
2023-01-15T19:22:59.602Z,2.63
2023-01-15T19:25:32.669Z,2.20
2023-01-15T19:27:59.973Z,1.98
2023-01-15T19:30:28.586Z,2.50
2023-01-15T19:32:56.821Z,2.10
2023-01-15T19:35:24.666Z,2.00
2023-01-15T19:37:53.302Z,1.90
2023-01-15T19:40:20.436Z,2.45
2023-01-15T19:43:06.132Z,2.40
2023-01-15T19:45:51.785Z,1.73
2023-01-15T19:48:39.496Z,2.33
2023-01-15T19:51:09.984Z,2.22
2023-01-15T19:53:40.794Z,3.03
2023-01-15T19:56:08.356Z,2.33
2023-01-15T19:58:36.005Z,2.10
2023-01-15T20:01:03.628Z,2.08
2023-01-15T20:03:30.876Z,2.17
2023-01-15T20:05:58.617Z,2.40
2023-01-15T20:08:25.529Z,2.20
2023-01-15T20:10:52.602Z,2.47
2023-01-15T20:13:41.421Z,2.33
2023-01-15T20:16:15.817Z,2.95
2023-01-15T20:18:42.718Z,2.30
2023-01-15T20:21:14.658Z,2.20
2023-01-15T20:23:43.032Z,2.42
2023-01-15T20:26:13.574Z,2.30
2023-01-15T20:28:42.786Z,2.00
2023-01-15T20:31:18.576Z,2.63
2023-01-15T20:33:45.980Z,2.47
2023-01-15T20:36:13.534Z,2.10
2023-01-15T20:38:40.530Z,2.28
2023-01-15T20:41:28.388Z,2.60
2023-01-15T20:44:14.468Z,2.20
2023-01-15T20:46:41.269Z,2.10
2023-01-15T20:49:28.059Z,3.03
2023-01-15T20:51:56.621Z,2.70
2023-01-15T20:54:25.261Z,2.42
2023-01-15T20:56:52.360Z,2.30
2023-01-15T20:59:19.358Z,2.08
2023-01-15T21:01:46.468Z,2.70
2023-01-15T21:04:14.057Z,2.70
2023-01-15T21:06:41.272Z,2.60
2023-01-15T21:09:10.451Z,1.98
2023-01-15T21:11:37.547Z,2.08
2023-01-15T21:14:04.495Z,2.17
2023-01-15T21:16:31.463Z,2.78
2023-01-15T21:19:01.360Z,2.30
2023-01-15T21:21:28.360Z,3.05
2023-01-15T21:23:55.362Z,2.63
2023-01-15T21:26:24.547Z,2.35
2023-01-15T21:28:55.345Z,2.50
2023-01-15T21:31:22.412Z,2.40
2023-01-15T21:33:49.379Z,4.15
2023-01-15T21:36:16.680Z,2.20
2023-01-15T21:38:43.717Z,2.60
2023-01-15T21:41:15.156Z,2.30
2023-01-15T21:44:02.047Z,2.40
2023-01-15T21:46:29.430Z,2.50
2023-01-15T21:48:59.383Z,2.45
2023-01-15T21:51:27.091Z,2.33
2023-01-15T21:53:54.501Z,2.33
2023-01-15T21:56:21.536Z,2.53
2023-01-15T21:58:48.378Z,2.17
2023-01-15T22:01:18.283Z,2.90
2023-01-15T22:03:46.042Z,3.17
2023-01-15T22:06:13.245Z,2.60
2023-01-15T22:08:40.467Z,2.60
2023-01-15T22:11:09.566Z,2.35
2023-01-15T22:13:37.636Z,2.97
2023-01-15T22:16:04.762Z,3.65
2023-01-15T22:18:32.838Z,2.17
2023-01-15T22:21:02.120Z,2.05
2023-01-15T22:23:29.489Z,2.10
2023-01-15T22:25:56.313Z,2.30
2023-01-15T22:28:23.644Z,2.78
2023-01-15T22:30:50.698Z,1.83
2023-01-15T22:33:18.095Z,2.20
2023-01-15T22:35:44.973Z,2.55
2023-01-15T22:38:11.970Z,1.73
2023-01-15T22:40:38.921Z,2.00
2023-01-15T22:43:05.720Z,2.05
2023-01-15T22:45:32.665Z,1.90
2023-01-15T22:47:59.712Z,1.70
2023-01-15T22:50:26.491Z,1.70
2023-01-15T22:52:54.048Z,1.60
2023-01-15T22:55:20.989Z,1.50
2023-01-15T22:57:49.256Z,1.75
2023-01-15T23:00:16.881Z,1.80
2023-01-15T23:02:56.289Z,1.50
2023-01-15T23:05:24.899Z,1.60
2023-01-15T23:07:51.722Z,1.58
2023-01-15T23:10:18.734Z,1.25
2023-01-15T23:12:45.779Z,1.80
2023-01-15T23:15:14.241Z,1.42
2023-01-15T23:17:41.312Z,1.20
2023-01-15T23:20:09.341Z,1.65
2023-01-15T23:22:36.230Z,1.58
2023-01-15T23:25:03.814Z,1.45
2023-01-15T23:27:31.136Z,1.20
2023-01-15T23:29:57.991Z,1.60
2023-01-15T23:32:24.950Z,1.55
2023-01-15T23:34:52.052Z,1.35
2023-01-15T23:37:19.223Z,1.25
2023-01-15T23:39:46.204Z,1.13
2023-01-15T23:42:31.799Z,1.20
2023-01-15T23:45:17.563Z,1.00
2023-01-15T23:47:45.262Z,1.38
2023-01-15T23:50:12.262Z,1.60
2023-01-15T23:52:39.193Z,1.15
2023-01-15T23:55:06.317Z,1.48
2023-01-15T23:57:33.374Z,1.20
